Map

Track Data

SID SEASON NUMBER BASIN SUBBASIN NAME ISO_TIME NATURE LAT LON WMO_WIND WMO_PRES WMO_AGENCY TRACK_TYPE DIST2LAND LANDFALL IFLAG USA_AGENCY USA_ATCF_ID USA_LAT USA_LON USA_RECORD USA_STATUS USA_WIND USA_PRES USA_SSHS USA_R34_NE USA_R34_SE USA_R34_SW USA_R34_NW USA_R50_NE USA_R50_SE USA_R50_SW USA_R50_NW USA_R64_NE USA_R64_SE USA_R64_SW USA_R64_NW USA_POCI USA_ROCI USA_RMW USA_EYE TOKYO_LAT TOKYO_LON TOKYO_GRADE TOKYO_WIND TOKYO_PRES TOKYO_R50_DIR TOKYO_R50_LONG TOKYO_R50_SHORT TOKYO_R30_DIR TOKYO_R30_LONG TOKYO_R30_SHORT TOKYO_LAND CMA_LAT CMA_LON CMA_CAT CMA_WIND CMA_PRES HKO_LAT HKO_LON HKO_CAT HKO_WIND HKO_PRES NEWDELHI_LAT NEWDELHI_LON NEWDELHI_GRADE NEWDELHI_WIND NEWDELHI_PRES NEWDELHI_CI NEWDELHI_DP NEWDELHI_POCI REUNION_LAT REUNION_LON REUNION_TYPE REUNION_WIND REUNION_PRES REUNION_TNUM REUNION_CI REUNION_RMW REUNION_R34_NE REUNION_R34_SE REUNION_R34_SW REUNION_R34_NW REUNION_R50_NE REUNION_R50_SE REUNION_R50_SW REUNION_R50_NW REUNION_R64_NE REUNION_R64_SE REUNION_R64_SW REUNION_R64_NW BOM_LAT BOM_LON BOM_TYPE BOM_WIND BOM_PRES BOM_TNUM BOM_CI BOM_RMW BOM_R34_NE BOM_R34_SE BOM_R34_SW BOM_R34_NW BOM_R50_NE BOM_R50_SE BOM_R50_SW BOM_R50_NW BOM_R64_NE BOM_R64_SE BOM_R64_SW BOM_R64_NW BOM_ROCI BOM_POCI BOM_EYE BOM_POS_METHOD BOM_PRES_METHOD NADI_LAT NADI_LON NADI_CAT NADI_WIND NADI_PRES WELLINGTON_LAT WELLINGTON_LON WELLINGTON_WIND WELLINGTON_PRES DS824_LAT DS824_LON DS824_STAGE DS824_WIND DS824_PRES TD9636_LAT TD9636_LON TD9636_STAGE TD9636_WIND TD9636_PRES TD9635_LAT TD9635_LON TD9635_WIND TD9635_PRES TD9635_ROCI NEUMANN_LAT NEUMANN_LON NEUMANN_CLASS NEUMANN_WIND NEUMANN_PRES MLC_LAT MLC_LON MLC_CLASS MLC_WIND MLC_PRES USA_GUST BOM_GUST BOM_GUST_PER REUNION_GUST REUNION_GUST_PER USA_SEAHGT USA_SEARAD_NE USA_SEARAD_SE USA_SEARAD_SW USA_SEARAD_NW STORM_SPEED STORM_DIR
1949231N35140 1949 56 WP MM JUDITH 1949-08-19 00:00:00 TS 34.7000 139.800 main 24 21 __O___________ -1 34.7000 139.800 1 23 1000 10 78
1949231N35140 1949 56 WP MM JUDITH 1949-08-19 03:00:00 TS 34.7978 140.382 main 42 42 __P___________ -1 34.7978 140.382 1 26 999 10 79
1949231N35140 1949 56 WP MM JUDITH 1949-08-19 06:00:00 TS 34.9000 141.000 main 63 63 __O___________ -1 34.9000 141.000 1 29 998 11 79
1949231N35140 1949 56 WP MM JUDITH 1949-08-19 09:00:00 TS 35.0076 141.665 main 106 106 __P___________ -1 35.0076 141.665 1 29 998 11 79
1949231N35140 1949 56 WP MM JUDITH 1949-08-19 12:00:00 TS 35.1000 142.300 main 143 143 __O___________ -1 35.1000 142.300 1 29 998 10 81
1949231N35140 1949 56 WP MM JUDITH 1949-08-19 15:00:00 TS 35.1570 142.823 main 180 180 __P___________ -1 35.1570 142.823 1 29 998 8 83
1949231N35140 1949 56 WP MM JUDITH 1949-08-19 18:00:00 TS 35.2000 143.300 main 223 223 __O___________ -1 35.2000 143.300 1 29 998 8 83
1949231N35140 1949 56 WP MM JUDITH 1949-08-19 21:00:00 TS 35.2500 143.815 main 267 265 __P___________ -1 35.2500 143.815 1 29 998 8 83
1949231N35140 1949 56 WP MM JUDITH 1949-08-20 00:00:00 TS 35.3000 144.300 main 310 310 __O___________ -1 35.3000 144.300 1 29 998 7 83
1949231N35140 1949 56 WP MM JUDITH 1949-08-20 03:00:00 TS 35.3421 144.708 main 346 346 __P___________ -1 35.3421 144.708 1 29 998 7 81
1949231N35140 1949 56 WP MM JUDITH 1949-08-20 06:00:00 TS 35.4000 145.100 main 380 380 __O___________ -1 35.4000 145.100 1 29 998 7 78
1949231N35140 1949 56 WP MM JUDITH 1949-08-20 09:00:00 TS 35.4848 145.535 main 415 415 __P___________ -1 35.4848 145.535 1 29 998 8 75
1949231N35140 1949 56 WP MM JUDITH 1949-08-20 12:00:00 TS 35.6000 146.000 main 459 459 __O___________ -1 35.6000 146.000 1 29 998 8 71
1949231N35140 1949 56 WP MM JUDITH 1949-08-20 15:00:00 TS 35.7499 146.492 main 504 504 __P___________ -1 35.7499 146.492 1 29 998 9 70
1949231N35140 1949 56 WP MM JUDITH 1949-08-20 18:00:00 TS 35.9000 147.000 main 549 549 __O___________ -1 35.9000 147.000 1 29 998 8 72
1949231N35140 1949 56 WP MM JUDITH 1949-08-20 21:00:00 TS 36.0072 147.493 main 588 588 __P___________ -1 36.0072 147.493 1 29 998 8 76
1949231N35140 1949 56 WP MM JUDITH 1949-08-21 00:00:00 TS 36.1000 148.000 main 624 624 __O___________ -1 36.1000 148.000 1 29 998 9 77
1949231N35140 1949 56 WP MM JUDITH 1949-08-21 03:00:00 TS 36.2074 148.550 main 660 660 __P___________ -1 36.2074 148.550 1 29 998 9 77
1949231N35140 1949 56 WP MM JUDITH 1949-08-21 06:00:00 TS 36.3000 149.100 main 706 706 __O___________ -1 36.3000 149.100 1 29 998 9 81
1949231N35140 1949 56 WP MM JUDITH 1949-08-21 09:00:00 TS 36.3498 149.615 main 746 740 __P___________ -1 36.3498 149.615 1 29 998 8 83
1949231N35140 1949 56 WP MM JUDITH 1949-08-21 12:00:00 TS 36.4000 150.100 main 779 779 __O___________ -1 36.4000 150.100 1 29 998 8 79
1949231N35140 1949 56 WP MM JUDITH 1949-08-21 15:00:00 TS 36.4997 150.550 main 806 806 __P___________ -1 36.4997 150.550 1 29 998 7 75
1949231N35140 1949 56 WP MM JUDITH 1949-08-21 18:00:00 TS 36.6000 151.000 main 841 841 __O___________ -1 36.6000 151.000 1 29 999 8 78
1949231N35140 1949 56 WP MM JUDITH 1949-08-21 21:00:00 TS 36.6574 151.493 main 876 876 __P___________ -1 36.6574 151.493 1 29 999 8 83
1949231N35140 1949 56 WP MM JUDITH 1949-08-22 00:00:00 TS 36.7000 152.000 main 909 909 __O___________ -1 36.7000 152.000 1 29 1000 8 84
1949231N35140 1949 56 WP MM JUDITH 1949-08-22 03:00:00 TS 36.7423 152.500 main 935 932 __P___________ -1 36.7423 152.500 1 29 1000 8 83
1949231N35140 1949 56 WP MM JUDITH 1949-08-22 06:00:00 TS 36.8000 153.000 main 954 954 __O___________ -1 36.8000 153.000 1 29 1000 8 77
1949231N35140 1949 56 WP MM JUDITH 1949-08-22 09:00:00 TS 36.9299 153.507 main 975 972 __P___________ -1 36.9299 153.507 1 29 1000 8 76
1949231N35140 1949 56 WP MM JUDITH 1949-08-22 12:00:00 TS 37.0000 154.000 main 996 996 __O___________ -1 37.0000 154.000 1 29 1000 8 90
1949231N35140 1949 56 WP MM JUDITH 1949-08-22 15:00:00 TS 36.9253 154.541 main 1035 1035 __P___________ -1 36.9253 154.541 1 26 1000 8 113
1949231N35140 1949 56 WP MM JUDITH 1949-08-22 18:00:00 TS 36.7000 154.900 main 1076 1076 __O___________ -1 36.7000 154.900 1 23 1001 7 153
1949231N35140 1949 56 WP MM JUDITH 1949-08-22 21:00:00 TS 36.3220 154.927 main 1108 1108 __P___________ -1 36.3220 154.927 1 23 1001 8 192
1949231N35140 1949 56 WP MM JUDITH 1949-08-23 00:00:00 TS 35.9000 154.700 main 1129 1129 __O___________ -1 35.9000 154.700 1 23 1001 9 212
1949231N35140 1949 56 WP MM JUDITH 1949-08-23 03:00:00 TS 35.5777 154.345 main 1131 1131 __P___________ -1 35.5777 154.345 1 1001 9 227
1949231N35140 1949 56 WP MM JUDITH 1949-08-23 06:00:00 TS 35.3000 153.900 main 1136 1123 __O___________ -1 35.3000 153.900 0 1001 9 231
1949231N35140 1949 56 WP MM JUDITH 1949-08-23 09:00:00 TS 35.0273 153.508 main 1123 1103 __P___________ -1 35.0273 153.508 0 1001 8 233
1949231N35140 1949 56 WP MM JUDITH 1949-08-23 12:00:00 TS 34.8000 153.100 main 1103 1074 __O___________ -1 34.8000 153.100 0 1001 8 241
1949231N35140 1949 56 WP MM JUDITH 1949-08-23 15:00:00 TS 34.6423 152.666 main 1076 1033 __P___________ -1 34.6423 152.666 0 1001 8 248
1949231N35140 1949 56 WP MM JUDITH 1949-08-23 18:00:00 TS 34.5000 152.200 main 1033 993 __O___________ -1 34.5000 152.200 0 1002 9 247
1949231N35140 1949 56 WP MM JUDITH 1949-08-23 21:00:00 TS 34.3149 151.708 main 993 953 __P___________ -1 34.3149 151.708 0 1002 9 244
1949231N35140 1949 56 WP MM JUDITH 1949-08-24 00:00:00 TS 34.1000 151.200 main 953 914 __O___________ -1 34.1000 151.200 0 1003 10 241
1949231N35140 1949 56 WP MM JUDITH 1949-08-24 03:00:00 TS 33.8424 150.692 main 917 880 __P___________ -1 33.8424 150.692 0 1003 10 239
1949231N35140 1949 56 WP MM JUDITH 1949-08-24 06:00:00 TS 33.6000 150.200 main 880 848 __O___________ -1 33.6000 150.200 0 1003 9 243
1949231N35140 1949 56 WP MM JUDITH 1949-08-24 09:00:00 TS 33.4347 149.750 main 852 813 __P___________ -1 33.4347 149.750 0 1003 8 248
1949231N35140 1949 56 WP MM JUDITH 1949-08-24 12:00:00 TS 33.3000 149.300 main 813 774 __O___________ -1 33.3000 149.300 0 1003 8 249
1949231N35140 1949 56 WP MM JUDITH 1949-08-24 15:00:00 TS 33.1423 148.815 main 778 741 __P___________ -1 33.1423 148.815 0 1003 9 250
1949231N35140 1949 56 WP MM JUDITH 1949-08-24 18:00:00 TS 33.0000 148.300 main 741 705 __O___________ -1 33.0000 148.300 0 1003 9 255
1949231N35140 1949 56 WP MM JUDITH 1949-08-24 21:00:00 TS 32.8997 147.765 main 705 661 __P___________ -1 32.8997 147.765 0 1003 9 258
1949231N35140 1949 56 WP MM JUDITH 1949-08-25 00:00:00 TS 32.8000 147.200 main 661 620 __O___________ -1 32.8000 147.200 0 1003 10 256
1949231N35140 1949 56 WP MM JUDITH 1949-08-25 03:00:00 TS 32.6631 146.607 main 620 588 __P___________ -1 32.6631 146.607 0 1004 11 253
1949231N35140 1949 56 WP MM JUDITH 1949-08-25 06:00:00 TS 32.5000 146.000 main 588 __O___________ -1 32.5000 146.000 0 1005 11 252

Digital Typhoon Data and Search

About IBTrACS Database

This database is a web-friendly format of International Best Track Archive for Climate Stewardship (IBTrACS), a global best track data archive curated by NOAA dating back to 1842.

Updated: 2021-10-21